createdAt,value
2018-06-12T00:00:02.676Z,60.46
2018-06-12T00:01:12.850Z,60.37
2018-06-12T00:02:23.040Z,60.94
2018-06-12T00:03:33.172Z,60.56
2018-06-12T00:04:43.316Z,60.94
2018-06-12T00:05:53.467Z,61.01
2018-06-12T00:07:03.607Z,61.2
2018-06-12T00:08:13.467Z,61.11
2018-06-12T00:09:23.856Z,61.4
2018-06-12T00:10:34.088Z,61.4
2018-06-12T00:11:44.401Z,61.3
2018-06-12T00:12:54.719Z,61.58
2018-06-12T00:14:04.590Z,61.87
2018-06-12T00:15:14.774Z,61.97
2018-06-12T00:16:25.399Z,61.78
2018-06-12T00:17:35.265Z,61.87
2018-06-12T00:18:45.425Z,62.64
2018-06-12T00:19:55.319Z,62.64
2018-06-12T00:21:05.703Z,62.55
2018-06-12T00:22:15.752Z,62.84
2018-06-12T00:23:25.899Z,62.64
2018-06-12T00:24:35.843Z,62.64
2018-06-12T00:25:46.017Z,62.55
2018-06-12T00:26:56.244Z,62.74
2018-06-12T00:28:06.050Z,63.12
2018-06-12T00:29:15.854Z,63.22
2018-06-12T00:30:26.034Z,62.93
2018-06-12T00:31:36.175Z,63.22
2018-06-12T00:32:46.374Z,63.22
2018-06-12T00:33:56.638Z,63.22
2018-06-12T00:35:06.872Z,63.6
2018-06-12T00:36:17.208Z,63.51
2018-06-12T00:37:27.594Z,63.51
2018-06-12T00:38:37.730Z,63.51
2018-06-12T00:39:47.881Z,63.51
2018-06-12T00:40:58.068Z,63.6
2018-06-12T00:42:08.212Z,63.99
2018-06-12T00:43:18.435Z,63.96
2018-06-12T00:44:28.656Z,64.15
2018-06-12T00:45:38.922Z,64.15
2018-06-12T00:46:49.190Z,64.15
2018-06-12T00:48:01.574Z,63.96
2018-06-12T00:49:13.561Z,64.34
2018-06-12T00:50:23.689Z,64.72
2018-06-12T00:51:33.878Z,64.25
2018-06-12T00:52:44.043Z,64.72
2018-06-12T00:53:54.313Z,64.53
2018-06-12T00:55:04.682Z,64.43
2018-06-12T00:56:15.051Z,64.43
2018-06-12T00:57:25.197Z,64.34
2018-06-12T00:58:35.572Z,64.43
2018-06-12T00:59:45.725Z,64.72
2018-06-12T01:00:55.878Z,65.01
2018-06-12T01:02:06.048Z,65.01
2018-06-12T01:04:29.835Z,65.3
2018-06-12T01:06:55.779Z,65.2
2018-06-12T01:08:05.930Z,65.01
2018-06-12T01:09:16.135Z,64.82
2018-06-12T01:11:39.277Z,65.01
2018-06-12T01:12:50.706Z,65.4
2018-06-12T01:14:00.833Z,65.49
2018-06-12T01:15:11.023Z,65.4
2018-06-12T01:17:36.314Z,65.3
2018-06-12T01:18:46.493Z,65.2
2018-06-12T01:19:57.336Z,65.2
2018-06-12T01:21:07.478Z,65.3
2018-06-12T01:22:17.818Z,65.59
2018-06-12T01:23:27.986Z,65.84
2018-06-12T01:24:38.123Z,65.94
2018-06-12T01:25:47.783Z,65.75
2018-06-12T01:26:58.092Z,65.65
2018-06-12T01:28:08.295Z,66.07
2018-06-12T01:29:18.454Z,66.07
2018-06-12T01:30:28.694Z,66.07
2018-06-12T01:31:39.945Z,66.23
2018-06-12T01:32:50.160Z,66.16
2018-06-12T01:34:00.590Z,66.16
2018-06-12T01:35:10.731Z,65.84
2018-06-12T01:36:20.927Z,66.23
2018-06-12T01:37:30.805Z,66.03
2018-06-12T01:38:40.975Z,66.52
2018-06-12T01:39:51.123Z,66.03
2018-06-12T01:41:01.297Z,66.64
2018-06-12T01:42:11.436Z,66.03
2018-06-12T01:43:21.655Z,66.42
2018-06-12T01:44:31.810Z,66.61
2018-06-12T01:45:42.015Z,66.26
2018-06-12T01:46:52.149Z,66.26
2018-06-12T01:48:02.289Z,66.23
2018-06-12T01:49:12.421Z,66.26
2018-06-12T01:50:22.547Z,65.84
2018-06-12T01:51:32.705Z,66.13
2018-06-12T01:52:43.186Z,65.94
2018-06-12T01:53:53.352Z,66.55
2018-06-12T01:55:03.550Z,66.13
2018-06-12T01:56:13.437Z,66.52
2018-06-12T01:57:23.318Z,66.42
2018-06-12T01:58:33.665Z,66.42
2018-06-12T01:59:44.117Z,66.13
2018-06-12T02:00:54.282Z,66.23
2018-06-12T02:02:04.403Z,66.23
2018-06-12T02:03:14.542Z,66.13
2018-06-12T02:04:24.688Z,66.9
2018-06-12T02:05:34.963Z,66.71
2018-06-12T02:06:45.315Z,66.42
2018-06-12T02:07:55.445Z,66.8
2018-06-12T02:09:05.609Z,67.19
2018-06-12T02:10:15.747Z,67
2018-06-12T02:11:25.923Z,66.9
2018-06-12T02:12:35.895Z,67
2018-06-12T02:13:46.094Z,67.76
2018-06-12T02:14:56.356Z,67.38
2018-06-12T02:16:06.360Z,67.38
2018-06-12T02:17:16.655Z,67.67
2018-06-12T02:18:26.955Z,67.67
2018-06-12T02:19:37.377Z,67.54
2018-06-12T02:20:47.508Z,67.67
2018-06-12T02:21:57.793Z,68.12
2018-06-12T02:23:07.927Z,68.02
2018-06-12T02:24:18.076Z,67.73
2018-06-12T02:25:27.900Z,67.73
2018-06-12T02:26:38.060Z,68.02
2018-06-12T02:27:48.231Z,67.73
2018-06-12T02:28:58.362Z,67.54
2018-06-12T02:30:08.580Z,67.44
2018-06-12T02:31:18.886Z,67.83
2018-06-12T02:32:29.043Z,67.92
2018-06-12T02:33:39.297Z,68.02
2018-06-12T02:34:49.437Z,67.73
2018-06-12T02:35:59.608Z,67.73
2018-06-12T02:37:09.737Z,68.3
2018-06-12T02:38:19.885Z,68.12
2018-06-12T02:39:30.084Z,68.3
2018-06-12T02:40:40.260Z,68.21
2018-06-12T02:41:50.422Z,68.12
2018-06-12T02:43:00.569Z,68.3
2018-06-12T02:44:10.753Z,68.12
2018-06-12T02:45:20.982Z,68.5
2018-06-12T02:46:30.916Z,69.07
2018-06-12T02:47:40.805Z,68.79
2018-06-12T02:48:51.120Z,68.79
2018-06-12T02:50:01.378Z,68.95
2018-06-12T02:51:11.546Z,68.75
2018-06-12T02:52:21.697Z,68.59
2018-06-12T02:53:31.817Z,68.69
2018-06-12T02:54:41.982Z,68.66
2018-06-12T02:55:52.122Z,68.85
2018-06-12T02:57:02.296Z,68.75
2018-06-12T02:58:12.456Z,68.85
2018-06-12T02:59:22.657Z,68.56
2018-06-12T03:00:32.920Z,68.66
2018-06-12T03:01:42.795Z,68.66
2018-06-12T03:02:52.659Z,68.27
2018-06-12T03:04:02.809Z,68.46
2018-06-12T03:05:12.975Z,68.08
2018-06-12T03:06:22.847Z,68.27
2018-06-12T03:07:32.984Z,68.37
2018-06-12T03:08:43.158Z,68.18
2018-06-12T03:09:53.307Z,68.18
2018-06-12T03:11:03.523Z,68.08
2018-06-12T03:12:13.669Z,68.37
2018-06-12T03:13:23.819Z,68.08
2018-06-12T03:14:33.965Z,68.08
2018-06-12T03:15:44.112Z,68.18
2018-06-12T03:16:54.283Z,68.56
2018-06-12T03:18:04.506Z,68.27
2018-06-12T03:19:14.278Z,68.37
2018-06-12T03:20:24.154Z,68.08
2018-06-12T03:21:34.292Z,68.46
2018-06-12T03:22:44.661Z,68.37
2018-06-12T03:23:54.893Z,68.95
2018-06-12T03:25:05.141Z,68.95
2018-06-12T03:26:15.506Z,69.04
2018-06-12T03:27:25.642Z,68.85
2018-06-12T03:28:35.791Z,69.23
2018-06-12T03:29:45.946Z,69.13
2018-06-12T03:31:10.964Z,69.48
2018-06-12T03:32:21.327Z,69.13
2018-06-12T03:33:31.463Z,69.23
2018-06-12T03:34:41.591Z,69.1
2018-06-12T03:35:51.720Z,69.33
2018-06-12T03:37:01.483Z,69.13
2018-06-12T03:38:11.778Z,69.52
2018-06-12T03:39:22.200Z,69.33
2018-06-12T03:40:32.350Z,69.62
2018-06-12T03:41:42.505Z,69.52
2018-06-12T03:42:53.723Z,69.13
2018-06-12T03:44:03.877Z,69.23
2018-06-12T03:45:14.104Z,69.23
2018-06-12T03:46:23.608Z,69.42
2018-06-12T03:47:33.749Z,69.52
2018-06-12T03:48:43.957Z,69.9
2018-06-12T03:49:54.100Z,69.62
2018-06-12T03:51:04.240Z,69.62
2018-06-12T03:52:14.398Z,69.71
2018-06-12T03:53:24.577Z,69.71
2018-06-12T03:54:34.973Z,69.81
2018-06-12T03:55:44.758Z,69.9
2018-06-12T03:56:54.928Z,69.68
2018-06-12T03:58:04.801Z,69.9
2018-06-12T03:59:14.931Z,70.38
2018-06-12T04:00:25.059Z,70.48
2018-06-12T04:01:35.205Z,70.29
2018-06-12T04:02:45.530Z,70.19
2018-06-12T04:03:55.677Z,69.96
2018-06-12T04:05:05.908Z,70.54
2018-06-12T04:06:16.201Z,71.02
2018-06-12T04:07:26.098Z,70.73
2018-06-12T04:08:36.275Z,70.73
2018-06-12T04:09:46.421Z,71.21
2018-06-12T04:10:56.589Z,70.73
2018-06-12T04:12:07.020Z,70.83
2018-06-12T04:13:17.160Z,70.44
2018-06-12T04:14:27.323Z,70.25
2018-06-12T04:15:37.473Z,70.25
2018-06-12T04:16:47.681Z,69.96
2018-06-12T04:17:57.391Z,69.68
2018-06-12T04:19:07.625Z,69.87
2018-06-12T04:20:17.993Z,69.52
2018-06-12T04:21:28.154Z,69.52
2018-06-12T04:22:38.063Z,69.39
2018-06-12T04:23:48.211Z,69.48
2018-06-12T04:24:58.351Z,70.06
2018-06-12T04:26:08.495Z,70.06
2018-06-12T04:27:18.681Z,69.77
2018-06-12T04:28:28.864Z,69.48
2018-06-12T04:29:39.121Z,69.39
2018-06-12T04:30:49.311Z,69.58
2018-06-12T04:31:59.566Z,69.48
2018-06-12T04:33:09.753Z,69.2
2018-06-12T04:34:19.924Z,69.87
2018-06-12T04:35:30.362Z,69.39
2018-06-12T04:36:40.529Z,69.39
2018-06-12T04:37:50.720Z,69.39
2018-06-12T04:39:00.628Z,69.1
2018-06-12T04:40:10.768Z,69.1
2018-06-12T04:41:20.898Z,69.39
2018-06-12T04:42:31.066Z,69.2
2018-06-12T04:43:41.073Z,69.58
2018-06-12T04:44:51.209Z,69.01
2018-06-12T04:46:01.337Z,69.2
2018-06-12T04:47:11.674Z,69.1
2018-06-12T04:48:21.806Z,68.62
2018-06-12T04:49:31.986Z,68.85
2018-06-12T04:50:42.118Z,68.56
2018-06-12T04:51:52.267Z,68.75
2018-06-12T04:53:02.389Z,68.56
2018-06-12T04:54:12.615Z,68.56
2018-06-12T04:55:22.749Z,68.56
2018-06-12T04:56:32.875Z,68.56
2018-06-12T04:57:43.026Z,68.08
2018-06-12T04:58:53.175Z,68.08
2018-06-12T05:00:03.079Z,68.56
2018-06-12T05:01:13.280Z,68.46
2018-06-12T05:02:23.472Z,68.56
2018-06-12T05:03:33.625Z,68.27
2018-06-12T05:04:43.854Z,68.27
2018-06-12T05:05:54.034Z,68.27
2018-06-12T05:07:04.206Z,68.18
2018-06-12T05:08:14.358Z,68.46
2018-06-12T05:09:24.485Z,68.56
2018-06-12T05:10:34.743Z,67.89
2018-06-12T05:11:45.072Z,67.85
2018-06-12T05:12:54.983Z,68.37
2018-06-12T05:14:05.132Z,68.18
2018-06-12T05:15:15.293Z,67.89
2018-06-12T05:16:25.222Z,67.79
2018-06-12T05:17:35.356Z,67.79
2018-06-12T05:18:45.529Z,67.69
2018-06-12T05:19:55.962Z,67.89
2018-06-12T05:21:06.537Z,67.41
2018-06-12T05:22:16.701Z,67.69
2018-06-12T05:23:26.840Z,67.89
2018-06-12T05:24:37.016Z,67.99
2018-06-12T05:25:47.284Z,67.79
2018-06-12T05:26:57.663Z,67.79
2018-06-12T05:28:07.562Z,67.32
2018-06-12T05:29:17.730Z,67.32
2018-06-12T05:30:27.881Z,67.32
2018-06-12T05:31:38.251Z,66.93
2018-06-12T05:32:48.394Z,66.93
2018-06-12T05:33:58.619Z,66.83
2018-06-12T05:35:08.767Z,66.55
2018-06-12T05:36:18.931Z,66.86
2018-06-12T05:37:29.102Z,66.29
2018-06-12T05:38:39.328Z,66
2018-06-12T05:39:49.472Z,66.39
2018-06-12T05:40:59.625Z,66.49
2018-06-12T05:42:09.533Z,66.39
2018-06-12T05:43:19.727Z,66
2018-06-12T05:44:29.571Z,65.91
2018-06-12T05:45:39.721Z,65.81
2018-06-12T05:46:49.946Z,65.33
2018-06-12T05:48:00.156Z,64.95
2018-06-12T05:49:10.326Z,64.56
2018-06-12T05:50:20.536Z,65.23
2018-06-12T05:51:30.691Z,64.85
2018-06-12T05:52:40.877Z,64.85
2018-06-12T05:53:51.143Z,64.66
2018-06-12T05:55:01.347Z,64.76
2018-06-12T05:56:11.457Z,64.66
2018-06-12T05:57:21.610Z,64.37
2018-06-12T05:58:31.744Z,63.99
2018-06-12T05:59:42.194Z,64.09
2018-06-12T06:00:52.366Z,64.66
2018-06-12T06:02:02.511Z,64.56
2018-06-12T06:03:12.659Z,64.5
2018-06-12T06:04:22.812Z,64.12
2018-06-12T06:05:32.971Z,64.02
2018-06-12T06:06:43.205Z,63.92
2018-06-12T06:07:53.586Z,63.73
2018-06-12T06:09:03.740Z,64.31
2018-06-12T06:10:13.895Z,63.83
2018-06-12T06:11:24.137Z,64.28
2018-06-12T06:12:34.337Z,64.18
2018-06-12T06:13:44.583Z,64.18
2018-06-12T06:14:54.771Z,64.18
2018-06-12T06:16:04.914Z,64.85
2018-06-12T06:17:15.118Z,63.92
2018-06-12T06:18:25.382Z,64.18
2018-06-12T06:19:35.617Z,64.09
2018-06-12T06:20:45.887Z,64.28
2018-06-12T06:21:56.099Z,64.28
2018-06-12T06:23:06.354Z,64.31
2018-06-12T06:24:16.834Z,64.22
2018-06-12T06:25:27.176Z,63.83
2018-06-12T06:26:37.445Z,63.57
2018-06-12T06:27:47.610Z,62.42
2018-06-12T06:28:57.784Z,62.04
2018-06-12T06:30:08.044Z,61.78
2018-06-12T06:31:18.210Z,61.87
2018-06-12T06:32:28.356Z,60.72
2018-06-12T06:33:38.562Z,60.24
2018-06-12T06:34:48.698Z,59.66
2018-06-12T06:35:58.936Z,59.69
2018-06-12T06:37:09.092Z,59.41
2018-06-12T06:38:19.325Z,59.69
2018-06-12T06:39:29.473Z,58.73
2018-06-12T06:40:39.857Z,58.42
2018-06-12T06:41:49.996Z,58.03
2018-06-12T06:43:00.184Z,58.42
2018-06-12T06:44:10.636Z,58.99
2018-06-12T06:45:20.987Z,59.16
2018-06-12T06:46:31.190Z,59.06
2018-06-12T06:47:41.379Z,59.16
2018-06-12T06:48:51.635Z,59.16
2018-06-12T06:50:01.837Z,59.16
2018-06-12T06:51:12.022Z,59.34
2018-06-12T06:52:22.201Z,59.83
2018-06-12T06:53:32.380Z,59.25
2018-06-12T06:54:42.674Z,59.54
2018-06-12T06:55:52.567Z,59.83
2018-06-12T06:57:02.759Z,59.73
2018-06-12T06:58:12.994Z,60.4
2018-06-12T06:59:23.238Z,59.92
2018-06-12T07:00:33.405Z,60.21
2018-06-12T07:01:43.574Z,60.21
2018-06-12T07:02:53.562Z,60.21
2018-06-12T07:04:03.755Z,60.69
2018-06-12T07:05:13.911Z,60.02
2018-06-12T07:06:24.062Z,60.02
2018-06-12T07:07:34.238Z,59.83
2018-06-12T07:08:44.112Z,60.31
2018-06-12T07:09:54.262Z,59.44
2018-06-12T07:11:04.185Z,59.25
2018-06-12T07:12:14.334Z,58.96
2018-06-12T07:13:24.507Z,58.61
2018-06-12T07:14:34.660Z,58.51
2018-06-12T07:15:44.804Z,58.8
2018-06-12T07:16:55.072Z,57.93
2018-06-12T07:18:05.269Z,57.87
2018-06-12T07:19:15.418Z,57.1
2018-06-12T07:20:25.674Z,57.48
2018-06-12T07:21:35.862Z,56.71
2018-06-12T07:22:46.178Z,56.52
2018-06-12T07:23:56.335Z,56.81
2018-06-12T07:25:06.480Z,56.43
2018-06-12T07:26:16.629Z,56.71
2018-06-12T07:27:26.776Z,56.43
2018-06-12T07:28:36.935Z,56.62
2018-06-12T07:29:47.121Z,56.81
2018-06-12T07:30:57.293Z,56.43
2018-06-12T07:32:07.426Z,56.33
2018-06-12T07:33:17.736Z,56.33
2018-06-12T07:34:27.897Z,56.43
2018-06-12T07:35:38.125Z,57.17
2018-06-12T07:36:48.313Z,57.26
2018-06-12T07:37:58.183Z,57.45
2018-06-12T07:39:08.328Z,57.36
2018-06-12T07:40:18.461Z,57.26
2018-06-12T07:41:28.596Z,57.17
2018-06-12T07:42:38.745Z,57.17
2018-06-12T07:43:48.906Z,57.36
2018-06-12T07:44:59.048Z,56.49
2018-06-12T07:46:08.964Z,56.11
2018-06-12T07:47:19.122Z,55.66
2018-06-12T07:48:29.256Z,55.46
2018-06-12T07:49:39.485Z,55.37
2018-06-12T07:50:49.659Z,54.5
2018-06-12T07:51:59.844Z,54.89
2018-06-12T07:53:10.225Z,55.08
2018-06-12T07:54:20.378Z,55.08
2018-06-12T07:55:30.294Z,55.18
2018-06-12T07:56:40.493Z,54.14
2018-06-12T07:57:50.632Z,54.69
2018-06-12T07:59:00.809Z,55.18
2018-06-12T08:00:10.987Z,54.89
2018-06-12T08:01:21.145Z,55.37
2018-06-12T08:02:31.319Z,55.46
2018-06-12T08:03:41.474Z,55.56
2018-06-12T08:04:51.681Z,56.23
2018-06-12T08:06:01.553Z,56.52
2018-06-12T08:07:11.710Z,56.68
2018-06-12T08:08:21.883Z,56.91
2018-06-12T08:09:32.137Z,56.62
2018-06-12T08:10:42.307Z,56.4
2018-06-12T08:11:52.482Z,56.3
2018-06-12T08:13:02.741Z,56.3
2018-06-12T08:14:13.191Z,56.23
2018-06-12T08:15:23.331Z,56.59
2018-06-12T08:16:33.511Z,56.88
2018-06-12T08:17:43.713Z,56.49
2018-06-12T08:18:53.885Z,56.98
2018-06-12T08:20:04.081Z,56.98
2018-06-12T08:21:14.245Z,57.07
2018-06-12T08:22:25.370Z,57.36
2018-06-12T08:23:35.555Z,57.45
2018-06-12T08:24:45.699Z,57.07
2018-06-12T08:25:55.849Z,57.17
2018-06-12T08:27:06.055Z,57.55
2018-06-12T08:28:16.200Z,56.78
2018-06-12T08:29:26.456Z,57.17
2018-06-12T08:30:36.945Z,56.98
2018-06-12T08:31:47.479Z,56.68
2018-06-12T08:32:57.617Z,56.49
2018-06-12T08:34:07.944Z,56.21
2018-06-12T08:35:18.062Z,56.11
2018-06-12T08:36:28.213Z,56.43
2018-06-12T08:37:38.454Z,55.46
2018-06-12T08:38:48.608Z,55.46
2018-06-12T08:39:58.825Z,55.4
2018-06-12T08:41:09.197Z,54.63
2018-06-12T08:42:19.347Z,54.24
2018-06-12T08:43:29.521Z,54.53
2018-06-12T08:44:39.694Z,54.24
2018-06-12T08:45:49.867Z,54.14
2018-06-12T08:46:59.744Z,54.24
2018-06-12T08:48:10.123Z,54.72
2018-06-12T08:49:20.249Z,54.63
2018-06-12T08:50:30.742Z,54.63
2018-06-12T08:51:40.913Z,54.63
2018-06-12T08:52:51.044Z,54.82
2018-06-12T08:54:01.195Z,54.53
2018-06-12T08:55:11.375Z,54.72
2018-06-12T08:56:21.606Z,54.53
2018-06-12T08:57:31.750Z,54.43
2018-06-12T08:58:41.910Z,54.24
2018-06-12T08:59:52.180Z,54.91
2018-06-12T09:01:02.427Z,55.3
2018-06-12T09:02:12.632Z,55.08
2018-06-12T09:03:23.032Z,54.6
2018-06-12T09:04:33.402Z,54.79
2018-06-12T09:05:43.627Z,55.18
2018-06-12T09:06:53.836Z,55.27
2018-06-12T09:08:04.032Z,54.89
2018-06-12T09:09:14.160Z,55.27
2018-06-12T09:10:24.319Z,54.69
2018-06-12T09:11:34.697Z,55.27
2018-06-12T09:12:44.861Z,55.08
2018-06-12T09:13:55.006Z,55.37
2018-06-12T09:15:05.219Z,54.69
2018-06-12T09:16:15.366Z,55.27
2018-06-12T09:17:25.573Z,55.46
2018-06-12T09:18:35.766Z,55.08
2018-06-12T09:19:45.981Z,55.37
2018-06-12T09:20:56.148Z,54.82
2018-06-12T09:22:06.312Z,54.72
2018-06-12T09:23:16.573Z,54.72
2018-06-12T09:24:26.858Z,54.24
2018-06-12T09:25:37.093Z,54.82
2018-06-12T09:26:47.331Z,55.01
2018-06-12T09:27:57.553Z,54.24
2018-06-12T09:29:07.754Z,54.82
2018-06-12T09:30:17.926Z,54.34
2018-06-12T09:31:28.100Z,54.46
2018-06-12T09:32:38.954Z,54.65
2018-06-12T09:33:49.097Z,53.81
2018-06-12T09:34:59.241Z,52.56
2018-06-12T09:36:09.482Z,52.69
2018-06-12T09:37:19.650Z,52.4
2018-06-12T09:38:29.538Z,52.59
2018-06-12T09:39:39.758Z,51.62
2018-06-12T09:40:49.957Z,51.62
2018-06-12T09:42:00.130Z,51.82
2018-06-12T09:43:10.838Z,52.2
2018-06-12T09:44:20.968Z,52.69
2018-06-12T09:45:31.113Z,51.65
2018-06-12T09:46:41.293Z,51.65
2018-06-12T09:47:51.431Z,50.98
2018-06-12T09:49:01.670Z,51.07
2018-06-12T09:50:12.157Z,50.01
2018-06-12T09:51:22.346Z,50.49
2018-06-12T09:52:32.635Z,50.4
2018-06-12T09:53:42.836Z,50.11
2018-06-12T09:54:52.978Z,49.05
2018-06-12T09:56:03.128Z,49.24
2018-06-12T09:57:13.323Z,49.05
2018-06-12T09:58:23.522Z,49.22
2018-06-12T09:59:33.732Z,49.41
2018-06-12T10:00:43.890Z,50.18
2018-06-12T10:01:54.036Z,50.45
2018-06-12T10:03:04.255Z,51.21
2018-06-12T10:04:14.425Z,51.12
2018-06-12T10:05:24.584Z,51.02
2018-06-12T10:06:34.863Z,50.93
2018-06-12T10:07:44.760Z,51.7
2018-06-12T10:08:55.045Z,51.76
2018-06-12T10:10:05.226Z,52.44
2018-06-12T10:11:15.477Z,52.54
2018-06-12T10:12:25.875Z,52.54
2018-06-12T10:13:36.063Z,52.54
2018-06-12T10:14:46.465Z,52.25
2018-06-12T10:15:56.382Z,51.57
2018-06-12T10:17:06.544Z,52.25
2018-06-12T10:18:16.699Z,51.57
2018-06-12T10:19:26.832Z,52.06
2018-06-12T10:20:37.101Z,52.51
2018-06-12T10:21:47.238Z,51.96
2018-06-12T10:22:57.400Z,51.76
2018-06-12T10:24:07.591Z,51.57
2018-06-12T10:25:17.461Z,51.48
2018-06-12T10:26:27.657Z,51.57
2018-06-12T10:27:37.887Z,51.48
2018-06-12T10:28:49.047Z,51.7
2018-06-12T10:29:59.287Z,51.12
2018-06-12T10:31:09.498Z,51.02
2018-06-12T10:32:19.684Z,51.12
2018-06-12T10:33:29.930Z,50.93
2018-06-12T10:35:12.011Z,51.14
2018-06-12T10:36:22.203Z,51.02
2018-06-12T10:37:32.428Z,50.37
2018-06-12T10:38:42.867Z,50.47
2018-06-12T10:39:53.022Z,50.57
2018-06-12T10:41:03.194Z,50.09
2018-06-12T10:42:13.383Z,50.93
2018-06-12T10:43:23.571Z,51.21
2018-06-12T10:44:33.706Z,50.18
2018-06-12T10:45:43.962Z,50.57
2018-06-12T10:46:54.153Z,50.63
2018-06-12T10:48:04.308Z,50.45
2018-06-12T10:49:14.182Z,49.96
2018-06-12T10:50:24.342Z,50.25
2018-06-12T10:51:34.491Z,50.06
2018-06-12T10:52:44.680Z,50.63
2018-06-12T10:53:55.037Z,50.45
2018-06-12T10:55:05.205Z,50.35
2018-06-12T10:56:15.392Z,50.54
2018-06-12T10:57:25.611Z,50.63
2018-06-12T10:58:35.791Z,50.35
2018-06-12T10:59:46.019Z,50.63
2018-06-12T11:00:56.266Z,50.45
2018-06-12T11:02:06.459Z,50.25
2018-06-12T11:03:16.611Z,50.15
2018-06-12T11:04:26.791Z,50.45
2018-06-12T11:05:36.681Z,50.57
2018-06-12T11:06:46.609Z,50.09
2018-06-12T11:07:56.757Z,49.22
2018-06-12T11:09:06.923Z,49.41
2018-06-12T11:10:17.127Z,49.79
2018-06-12T11:11:27.351Z,50.37
2018-06-12T11:12:37.590Z,50.09
2018-06-12T11:13:47.841Z,49.6
2018-06-12T11:14:57.719Z,49.7
2018-06-12T11:16:07.925Z,49.41
2018-06-12T11:17:18.101Z,49.89
2018-06-12T11:18:28.251Z,49.6
2018-06-12T11:19:38.466Z,49.6
2018-06-12T11:20:48.650Z,49.79
2018-06-12T11:21:58.977Z,49.73
2018-06-12T11:23:09.126Z,49.63
2018-06-12T11:24:18.946Z,49.82
2018-06-12T11:25:29.099Z,49.82
2018-06-12T11:26:39.275Z,49.43
2018-06-12T11:27:49.658Z,49.82
2018-06-12T11:28:59.839Z,49.34
2018-06-12T11:30:09.988Z,48.95
2018-06-12T11:31:20.133Z,48.97
2018-06-12T11:32:30.379Z,49.27
2018-06-12T11:33:40.565Z,48.59
2018-06-12T11:34:50.804Z,49
2018-06-12T11:36:01.034Z,48.88
2018-06-12T11:37:11.321Z,48.61
2018-06-12T11:38:21.541Z,48.71
2018-06-12T11:39:31.711Z,47.55
2018-06-12T11:40:41.924Z,48.03
2018-06-12T11:41:52.345Z,47.85
2018-06-12T11:43:02.412Z,47.36
2018-06-12T11:44:12.573Z,47.85
2018-06-12T11:45:22.765Z,47.45
2018-06-12T11:46:32.695Z,47.44
2018-06-12T11:47:42.884Z,48.01
2018-06-12T11:48:52.905Z,47.92
2018-06-12T11:50:03.324Z,47.14
2018-06-12T11:51:13.852Z,47.65
2018-06-12T11:52:24.024Z,48.03
2018-06-12T11:53:34.307Z,47.75
2018-06-12T11:54:44.581Z,47.17
2018-06-12T11:55:54.725Z,47.27
2018-06-12T11:57:04.909Z,47.38
2018-06-12T11:58:14.835Z,46.42
2018-06-12T11:59:25.003Z,46.23
2018-06-12T12:00:35.200Z,46.64
2018-06-12T12:01:45.599Z,46.13
2018-06-12T12:02:56.163Z,46.13
2018-06-12T12:04:06.088Z,46.71
2018-06-12T12:05:16.249Z,46.81
2018-06-12T12:06:26.405Z,46.61
2018-06-12T12:07:36.581Z,47
2018-06-12T12:08:46.757Z,46.23
2018-06-12T12:09:56.972Z,46.49
2018-06-12T12:11:07.160Z,47.07
2018-06-12T12:12:17.328Z,47.27
2018-06-12T12:13:27.614Z,47.55
2018-06-12T12:14:37.500Z,47.72
2018-06-12T12:15:47.674Z,47.63
2018-06-12T12:16:58.136Z,47.53
2018-06-12T12:18:08.419Z,47.24
2018-06-12T12:19:18.348Z,47.44
2018-06-12T12:20:28.543Z,47.55
2018-06-12T12:21:38.739Z,47.65
2018-06-12T12:22:48.916Z,46.49
2018-06-12T12:23:59.078Z,46.59
2018-06-12T12:25:09.266Z,46.59
2018-06-12T12:26:19.550Z,47.17
2018-06-12T12:27:29.830Z,46.69
2018-06-12T12:28:39.776Z,46.49
2018-06-12T12:29:50.162Z,46.23
2018-06-12T12:31:00.352Z,45.94
2018-06-12T12:32:10.289Z,45.38
2018-06-12T12:33:20.561Z,44.51
2018-06-12T12:34:30.721Z,44.53
2018-06-12T12:35:40.930Z,44.43
2018-06-12T12:36:51.078Z,44.63
2018-06-12T12:38:00.995Z,43.2
2018-06-12T12:39:11.166Z,43.1
2018-06-12T12:40:22.755Z,42.33
2018-06-12T12:41:32.916Z,43.28
2018-06-12T12:42:43.076Z,43.85
2018-06-12T12:43:53.506Z,44.53
2018-06-12T12:45:03.660Z,44.63
2018-06-12T12:46:13.649Z,44.53
2018-06-12T12:47:23.806Z,44.34
2018-06-12T12:48:33.981Z,43.85
2018-06-12T12:49:44.478Z,43.95
2018-06-12T12:50:54.698Z,44.24
2018-06-12T12:52:04.890Z,44.73
2018-06-12T12:53:15.065Z,44.8
2018-06-12T12:54:25.265Z,44.8
2018-06-12T12:55:35.499Z,45.67
2018-06-12T12:56:45.663Z,46.06
2018-06-12T12:57:56.803Z,45.76
2018-06-12T12:59:07.037Z,46.13
2018-06-12T13:00:17.447Z,45.84
2018-06-12T13:01:27.656Z,45.75
2018-06-12T13:02:37.820Z,45.96
2018-06-12T13:03:48.037Z,46.06
2018-06-12T13:04:58.289Z,45.86
2018-06-12T13:06:08.539Z,45.38
2018-06-12T13:07:18.948Z,45.57
2018-06-12T13:08:29.170Z,45.86
2018-06-12T13:09:39.356Z,45.48
2018-06-12T13:10:50.561Z,45.57
2018-06-12T13:12:00.826Z,45.57
2018-06-12T13:13:11.008Z,45.48
2018-06-12T13:14:21.204Z,45.67
2018-06-12T13:15:31.429Z,45.48
2018-06-12T13:16:41.613Z,45.26
2018-06-12T13:17:51.842Z,45.26
2018-06-12T13:19:02.011Z,45.36
2018-06-12T13:20:12.214Z,45.55
2018-06-12T13:21:22.250Z,45.55
2018-06-12T13:22:32.441Z,45.55
2018-06-12T13:23:42.613Z,45.07
2018-06-12T13:24:52.787Z,44.68
2018-06-12T13:26:03.213Z,44.78
2018-06-12T13:27:13.412Z,45.45
2018-06-12T13:28:23.853Z,45.55
2018-06-12T13:29:34.015Z,45.55
2018-06-12T13:30:44.238Z,45.65
2018-06-12T13:31:54.463Z,45.26
2018-06-12T13:33:04.683Z,45.55
2018-06-12T13:34:14.890Z,46.03
2018-06-12T13:35:25.083Z,46.33
2018-06-12T13:36:35.345Z,46.13
2018-06-12T13:37:45.552Z,46.9
2018-06-12T13:38:55.772Z,46.97
2018-06-12T13:40:06.001Z,47.27
2018-06-12T13:41:15.970Z,47.65
2018-06-12T13:42:26.151Z,47.75
2018-06-12T13:43:36.381Z,48.03
2018-06-12T13:44:46.625Z,47.85
2018-06-12T13:45:56.830Z,48.33
2018-06-12T13:47:06.840Z,48.52
2018-06-12T13:48:16.618Z,49.19
2018-06-12T13:49:26.827Z,49.1
2018-06-12T13:50:37.228Z,48.81
2018-06-12T13:51:47.426Z,48.9
2018-06-12T13:52:57.617Z,49.1
2018-06-12T13:54:07.849Z,48.74
2018-06-12T13:55:18.057Z,48.83
2018-06-12T13:56:28.234Z,47.77
2018-06-12T13:57:38.391Z,48.06
2018-06-12T13:58:48.360Z,47.29
2018-06-12T13:59:58.741Z,47.58
2018-06-12T14:01:08.981Z,48.06
2018-06-12T14:02:19.217Z,48.16
2018-06-12T14:03:29.440Z,47.94
2018-06-12T14:04:39.626Z,48.13
2018-06-12T14:05:49.887Z,48.9
2018-06-12T14:07:00.143Z,48.03
2018-06-12T14:08:10.609Z,47.07
2018-06-12T14:09:20.807Z,47.45
2018-06-12T14:10:31.006Z,47.17
2018-06-12T14:11:41.160Z,47.27
2018-06-12T14:12:51.382Z,47.07
2018-06-12T14:14:01.753Z,46.69
2018-06-12T14:15:11.914Z,47.07
2018-06-12T14:16:22.119Z,46.69
2018-06-12T14:17:32.300Z,46.3
2018-06-12T14:18:42.568Z,46.11
2018-06-12T14:19:52.793Z,45.62
2018-06-12T14:21:02.999Z,45.92
2018-06-12T14:22:13.159Z,46.03
2018-06-12T14:23:23.381Z,45.72
2018-06-12T14:24:33.594Z,46.4
2018-06-12T14:25:43.792Z,46.4
2018-06-12T14:26:53.983Z,46.23
2018-06-12T14:28:04.406Z,46.23
2018-06-12T14:29:14.885Z,46.42
2018-06-12T14:30:25.101Z,45.45
2018-06-12T14:31:35.335Z,45.94
2018-06-12T14:32:45.531Z,46.13
2018-06-12T14:33:55.844Z,46.03
2018-06-12T14:35:05.996Z,45.36
2018-06-12T14:36:16.197Z,45.62
2018-06-12T14:37:26.125Z,45.92
2018-06-12T14:38:36.322Z,46.4
2018-06-12T14:39:46.528Z,46.3
2018-06-12T14:40:56.985Z,46.11
2018-06-12T14:42:07.251Z,45.92
2018-06-12T14:43:17.480Z,46.3
2018-06-12T14:44:27.709Z,46.49
2018-06-12T14:45:37.934Z,46.88
2018-06-12T14:46:48.263Z,46.4
2018-06-12T14:47:58.462Z,46.49
2018-06-12T14:49:08.668Z,46.69
2018-06-12T14:50:18.914Z,46.69
2018-06-12T14:51:29.102Z,46.88
2018-06-12T14:52:39.279Z,46.49
2018-06-12T14:53:49.498Z,46.71
2018-06-12T14:54:59.735Z,46.51
2018-06-12T14:56:10.063Z,45.84
2018-06-12T14:57:20.301Z,46.03
2018-06-12T14:58:30.540Z,46.33
2018-06-12T14:59:40.714Z,46.33
2018-06-12T15:00:50.914Z,46.81
2018-06-12T15:02:02.162Z,46.51
2018-06-12T15:03:12.452Z,46.23
2018-06-12T15:04:22.635Z,45.94
2018-06-12T15:05:32.817Z,46.23
2018-06-12T15:06:42.997Z,46.49
2018-06-12T15:07:52.821Z,46.2
2018-06-12T15:09:03.073Z,46.69
2018-06-12T15:10:14.266Z,46.59
2018-06-12T15:11:24.991Z,46.49
2018-06-12T15:12:35.175Z,46.49